25 giugno 2022

Tempo Codice Tempo metereologico Temp. Vista Base nuvolosa Vento METAR/SPECI
2:20 am
V
63 °F 6¼ mi+ - 180° 180° 6 kt METAR EDLV 250020Z AUTO 18006KT 9999 NCD 17/16 Q1009
1:50 am
V
63 °F 6¼ mi+ - 170° 170° 6 kt METAR EDLV 242350Z AUTO 17006KT 9999 NCD 17/16 Q1009
1:20 am
V
63 °F 6¼ mi+ - 170° 170° 6 kt METAR EDLV 242320Z AUTO 17006KT 9999 NCD 17/16 Q1009
12:50 am
V
63 °F 6¼ mi+ - 160° 160° 5 kt METAR EDLV 242250Z AUTO 16005KT 9999 NCD 17/16 Q1008
12:20 am
V
63 °F 6¼ mi+ - 160° 160° 5 kt METAR EDLV 242220Z AUTO 16005KT 9999 NCD 17/16 Q1009

24 giugno 2022

Tempo Codice Tempo metereologico Temp. Vista Base nuvolosa Vento METAR/SPECI
11:50 pm
V
63 °F 6¼ mi+ - 170° 170° 4 kt METAR EDLV 242150Z 17004KT 150V220 CAVOK 17/16 Q1008
11:20 pm
V
63 °F 6¼ mi+ - 140° 140° 5 kt METAR EDLV 242120Z 14005KT CAVOK 17/16 Q1008
10:50 pm
V
64 °F 6¼ mi+ - 160° 160° 3 kt METAR EDLV 242050Z 16003KT 120V220 CAVOK 18/17 Q1008
10:20 pm
V
64 °F 6¼ mi+ - 190° 190° 3 kt METAR EDLV 242020Z 19003KT 9999 VCSH NSC 18/17 Q1008
9:50 pm
V
64 °F 5⅝ mi - 190° 190° 6 kt METAR EDLV 241950Z 19006KT 160V220 9000 -DZ VCSH FEW055TCU 18/17 Q1008
9:20 pm
V
66 °F 6¼ mi+ - 220° 220° 6 kt METAR EDLV 241920Z 22006KT 9999 VCSH FEW042 19/17 Q1008
8:50 pm
V
68 °F 6¼ mi+ - 150° 150° 4 kt METAR EDLV 241850Z 15004KT 130V190 9999 VCSH FEW041TCU 20/18 Q1007
8:20 pm
V
70 °F 6¼ mi+ - 120° 120° 3 kt METAR EDLV 241820Z 12003KT 090V150 9999 FEW040 21/19 Q1007
7:50 pm
V
66 °F 6¼ mi+ - 180° 180° 5 kt METAR EDLV 241750Z 18005KT 150V240 9999 FEW036 19/17 Q1007 RESHRA
7:20 pm
I
70 °F 1⅞ mi - 210° 210° 8 kt METAR EDLV 241720Z 21008KT 180V240 3000 SHRA SCT037TCU 21/17 Q1006
6:50 pm
V
73 °F 6¼ mi+ - 220° 220° 5 kt METAR EDLV 241650Z 22005KT 190V250 9999 FEW038 SCT044 23/16 Q1006
6:20 pm
V
75 °F 6¼ mi+ - 200° 200° 7 kt METAR EDLV 241620Z 20007KT 170V230 9999 FEW040 24/16 Q1006
5:50 pm
V
75 °F 6¼ mi+ - 200° 200° 6 kt METAR EDLV 241550Z 20006KT 160V260 9999 FEW034 24/15 Q1006
5:20 pm
V
75 °F 6¼ mi+ 3.400 ft 200° 200° 4 kt METAR EDLV 241520Z 20004KT 130V280 9999 BKN034 24/16 Q1006
4:50 pm
V
75 °F 6¼ mi+ 3.300 ft 230° 230° 5 kt METAR EDLV 241450Z 23005KT 170V340 9999 BKN033 24/16 Q1006
4:20 pm
V
75 °F 6¼ mi+ 3.000 ft 270° 270° 5 kt METAR EDLV 241420Z 27005KT 210V350 9999 FEW026 BKN030 BKN040 24/16 Q1006
3:50 pm
V
73 °F 6¼ mi+ - Var Var 5 kt METAR EDLV 241350Z VRB05KT 9999 SCT022 23/17 Q1006
3:20 pm
V
73 °F 6¼ mi+ - 280° 280° 6 kt METAR EDLV 241320Z 28006KT 230V330 9999 FEW016 23/18 Q1007
2:50 pm
V
70 °F 6¼ mi+ - 300° 300° 6 kt METAR EDLV 241250Z 30006KT 250V330 9999 VCSH FEW013 SCT016 21/18 Q1007
2:20 pm
V
70 °F 6¼ mi+ 3.300 ft 280° 280° 8 kt METAR EDLV 241220Z 28008KT 250V320 9999 VCSH SCT024TCU BKN033 21/18 Q1007
1:50 pm
V
72 °F 6¼ mi+ - 210° 210° 8 kt METAR EDLV 241150Z 21008KT 9999 VCSH SCT020TCU 22/17 Q1007
1:20 pm
V
73 °F 6¼ mi+ - 260° 260° 7 kt METAR EDLV 241120Z 26007KT 210V280 9999 FEW017 SCT029 23/19 Q1007
12:50 pm
M
72 °F 6¼ mi+ 1.700 ft 270° 270° 8 kt METAR EDLV 241050Z 27008KT 9999 SCT011 BKN017 22/19 Q1007
12:20 pm
V
70 °F 6¼ mi+ - 230° 230° 6 kt METAR EDLV 241020Z 23006KT 190V260 9999 FEW007 SCT009 21/19 Q1007
11:50 am
V
66 °F 6¼ mi+ 4.400 ft 240° 240° 6 kt METAR EDLV 240950Z 24006KT 210V270 9999 SCT006 BKN044 19/18 Q1007
11:20 am
V
66 °F 6¼ mi+ - 200° 200° 5 kt METAR EDLV 240920Z 20005KT 9999 FEW013 SCT044 19/18 Q1007
10:50 am
V
66 °F 6¼ mi+ - 250° 250° 3 kt METAR EDLV 240850Z 25003KT 220V290 9999 FEW005 SCT040 19/18 Q1007
10:20 am
V
64 °F 5⅝ mi - 230° 230° 4 kt METAR EDLV 240820Z 23004KT 9000 FEW005 SCT027 18/17 Q1007
9:50 am
V
64 °F 6¼ mi+ - 240° 240° 6 kt METAR EDLV 240750Z 24006KT 9999 FEW006 SCT029 18/17 Q1007
9:20 am
V
64 °F 6¼ mi+ - 230° 230° 6 kt METAR EDLV 240720Z 23006KT 9999 FEW007 18/17 Q1007
8:50 am
V
64 °F 6¼ mi+ - 200° 200° 4 kt METAR EDLV 240650Z 20004KT 170V230 9999 FEW012 18/18 Q1007
8:20 am
V
64 °F 6¼ mi+ - 220° 220° 5 kt METAR EDLV 240620Z 22005KT 180V260 9999 FEW031 18/17 Q1007 RERA
7:50 am
V
63 °F 6¼ mi+ 4.700 ft 220° 220° 5 kt METAR EDLV 240550Z 22005KT 9999 -RA BKN047 17/17 Q1007
7:20 am
V
63 °F 6¼ mi+ - Var Var 2 kt METAR EDLV 240520Z VRB02KT 9999 FEW043 SCT049 17/16 Q1006
6:50 am
V
64 °F 6¼ mi+ 4.100 ft 070° 070° 2 kt METAR EDLV 240450Z 07002KT 9999 BKN041 18/17 Q1006 RA
6:20 am
V
63 °F 6¼ mi+ 3.900 ft Var Var 2 kt METAR EDLV 240420Z VRB02KT 9999 -RA BKN039 17/16 Q1006
5:50 am
V
63 °F 6¼ mi+ - 320° 320° 3 kt METAR EDLV 240350Z 32003KT 260V010 9999 FEW039 17/17 Q1006
5:20 am
V
64 °F 6¼ mi+ - 300° 300° 3 kt METAR EDLV 240320Z 30003KT 260V360 9999 VCSH FEW038TCU 18/17 Q1006
4:50 am
V
64 °F 6¼ mi+ 10.000 ft 300° 300° 6 kt METAR EDLV 240250Z AUTO 30006KT 270V330 9999 FEW050/// OVC100/// 18/17 Q1006
4:20 am
I
64 °F 3⅛ mi 700 ft 290° 290° 9 kt METAR EDLV 240220Z AUTO 29009KT 5000 BKN007/// OVC088/// 18/18 Q1006
3:50 am
V
66 °F 6¼ mi+ 6.200 ft Var Var 2 kt METAR EDLV 240150Z AUTO VRB02KT 9999 FEW007/// SCT051/// OVC062/// 19/18 Q1007
3:20 am
V
66 °F 6¼ mi+ 6.500 ft 270° 270° 8 kt METAR EDLV 240120Z AUTO 27008KT 250V310 9999 FEW050/// BKN065/// OVC130/// 19/18 Q1007
2:50 am
V
68 °F 6¼ mi+ 7.500 ft 230° 230° 9 kt METAR EDLV 240050Z AUTO 23009KT 190V270 9999 FEW011/// BKN075/// OVC100/// 20/18 Q1007
2:20 am
M
68 °F 4⅜ mi 9.900 ft 070° 070° 5 kt METAR EDLV 240020Z AUTO 07005KT 020V120 7000 FEW049/// SCT068/// OVC099/// 20/18 Q1006
1:50 am
V
68 °F 6¼ mi+ 14.000 ft Var Var 2 kt METAR EDLV 232350Z AUTO VRB02KT 9999 FEW073/// SCT110/// BKN140/// 20/19 Q1006
1:20 am
V
68 °F 6¼ mi+ 11.000 ft 340° 340° 3 kt METAR EDLV 232320Z AUTO 34003KT 260V060 9999 FEW065/// BKN110/// BKN250/// 20/19 Q1007
12:50 am
V
68 °F 6¼ mi+ 10.000 ft Var Var 2 kt METAR EDLV 232250Z AUTO VRB02KT 9999 SCT060/// BKN100/// 20/19 Q1007
12:20 am
V
68 °F 6¼ mi+ 5.900 ft 210° 210° 6 kt METAR EDLV 232220Z AUTO 21006KT 190V270 9999 OVC059/// 20/19 Q1007

23 giugno 2022

Tempo Codice Tempo metereologico Temp. Vista Base nuvolosa Vento METAR/SPECI
11:50 pm
V
68 °F 6¼ mi+ - Var Var 1 kt METAR EDLV 232150Z VRB01KT CAVOK 20/19 Q1007
11:20 pm
V
70 °F 6¼ mi+ - Var Var 1 kt METAR EDLV 232120Z VRB01KT CAVOK 21/19 Q1007
10:50 pm
V
68 °F 5 mi - Var Var 1 kt METAR EDLV 232050Z VRB01KT 8000 NSC 20/19 Q1008
10:20 pm
V
70 °F 6¼ mi+ - Var Var 2 kt METAR EDLV 232020Z VRB02KT 9999 FEW046 21/18 Q1008
9:50 pm
V
70 °F 5⅝ mi 6.100 ft 270° 270° 4 kt METAR EDLV 231950Z 27004KT 210V320 9000 VCTS BKN061CB 21/20 Q1009
9:20 pm
V
70 °F 6¼ mi+ - 260° 260° 8 kt METAR EDLV 231920Z 26008KT 240V300 9999 -DZ FEW018 21/19 Q1008 RETSRA
8:50 pm
I
70 °F ⅞ mi - 270° 270° 10 kt METAR EDLV 231850Z 27010KT 240V360 3400 1500 TSRA SCT040CB 21/19 Q1009
8:20 pm
V
72 °F 5⅝ mi 7.000 ft 250° 250° 8 kt METAR EDLV 231820Z 25008KT 9000 -SHRA VCTS BKN070CB 22/21 Q1008
7:50 pm
V
75 °F 6¼ mi+ - Var Var 1 kt METAR EDLV 231750Z VRB01KT CAVOK 24/19 Q1008
7:20 pm
V
75 °F 6¼ mi+ - 010° 010° 3 kt METAR EDLV 231720Z 01003KT 320V090 CAVOK 24/19 Q1008
6:50 pm
V
75 °F 6¼ mi+ - 340° 340° 4 kt METAR EDLV 231650Z 34004KT 300V010 CAVOK 24/21 Q1008
6:20 pm
V
77 °F 6¼ mi+ - 340° 340° 3 kt METAR EDLV 231620Z 34003KT 310V020 9999 VCTS FEW032CB 25/21 Q1008
5:50 pm
V
73 °F 6¼ mi+ - Var Var 2 kt METAR EDLV 231550Z VRB02KT 9999 VCTS FEW031CB 23/21 Q1008
5:20 pm
V
70 °F 6¼ mi+ - 240° 240° 11 kt METAR EDLV 231520Z 24011KT 200V260 9999 -TSRA FEW039CB 21/18 Q1009
4:50 pm
V
84 °F 6¼ mi+ - 130° 130° 6 kt METAR EDLV 231450Z 13006KT 100V160 9999 VCTS SCT053CB 29/16 Q1009
4:20 pm
V
88 °F 6¼ mi+ - 130° 130° 6 kt METAR EDLV 231420Z 13006KT 090V170 CAVOK 31/16 Q1009
3:50 pm
V
86 °F 6¼ mi+ - Var Var 6 kt METAR EDLV 231350Z VRB06KT CAVOK 30/16 Q1009
3:20 pm
V
88 °F 6¼ mi+ - 160° 160° 6 kt METAR EDLV 231320Z 16006KT 100V220 CAVOK 31/16 Q1009
2:50 pm
V
88 °F 6¼ mi+ - 140° 140° 8 kt METAR EDLV 231250Z 14008KT 100V190 CAVOK 31/16 Q1010
2:20 pm
V
86 °F 6¼ mi+ - 160° 160° 9 kt METAR EDLV 231220Z 16009KT 130V210 CAVOK 30/16 Q1010
1:50 pm
V
88 °F 6¼ mi+ - 170° 170° 8 kt METAR EDLV 231150Z 17008KT 100V200 CAVOK 31/16 Q1010
1:20 pm
V
86 °F 6¼ mi+ - 140° 140° 10 kt METAR EDLV 231120Z 14010KT 110V180 CAVOK 30/16 Q1010
12:50 pm
V
86 °F 6¼ mi+ - 140° 140° 10 kt METAR EDLV 231050Z 14010KT 110V170 CAVOK 30/16 Q1010
12:20 pm
V
84 °F 6¼ mi+ - 140° 140° 10 kt METAR EDLV 231020Z 14010KT 100V170 CAVOK 29/16 Q1011
11:50 am
V
82 °F 6¼ mi+ - 160° 160° 12 kt METAR EDLV 230950Z 16012KT 120V190 CAVOK 28/16 Q1011
11:20 am
V
82 °F 6¼ mi+ - 140° 140° 11 kt METAR EDLV 230920Z 14011KT 110V170 CAVOK 28/16 Q1011
10:50 am
V
81 °F 6¼ mi+ - 140° 140° 8 kt METAR EDLV 230850Z 14008KT 100V180 CAVOK 27/16 Q1011
9:50 am
V
75 °F 6¼ mi+ - 130° 130° 7 kt METAR EDLV 230750Z 13007KT 070V170 CAVOK 24/15 Q1011
9:20 am
V
73 °F 6¼ mi+ - 120° 120° 7 kt METAR EDLV 230720Z 12007KT CAVOK 23/14 Q1011
8:50 am
V
72 °F 6¼ mi+ - 120° 120° 6 kt METAR EDLV 230650Z 12006KT 080V150 CAVOK 22/12 Q1011
8:20 am
V
68 °F 6¼ mi+ - 100° 100° 4 kt METAR EDLV 230620Z 10004KT 050V130 CAVOK 20/12 Q1012
7:50 am
V
66 °F 6¼ mi+ - 090° 090° 3 kt METAR EDLV 230550Z 09003KT 030V140 CAVOK 19/11 Q1011
7:20 am
V
64 °F 6¼ mi+ - Var Var 2 kt METAR EDLV 230520Z VRB02KT CAVOK 18/11 Q1011
6:50 am
V
61 °F 6¼ mi+ - Var Var 1 kt METAR EDLV 230450Z VRB01KT CAVOK 16/10 Q1011
6:20 am
V
61 °F 6¼ mi+ - Var Var 1 kt METAR EDLV 230420Z VRB01KT CAVOK 16/10 Q1011
5:50 am
V
59 °F 6¼ mi+ - Var Var 1 kt METAR EDLV 230350Z VRB01KT CAVOK 15/10 Q1011
5:20 am
V
59 °F 6¼ mi+ - Var Var 1 kt METAR EDLV 230320Z VRB01KT CAVOK 15/10 Q1011
4:50 am
V
59 °F 6¼ mi+ - 040° 040° 3 kt METAR EDLV 230250Z 04003KT 010V110 CAVOK 15/11 Q1012
4:20 am
V
61 °F 6¼ mi+ - Var Var 2 kt METAR EDLV 230220Z AUTO VRB02KT 9999 NCD 16/11 Q1012
3:50 am
V
61 °F 6¼ mi+ - 040° 040° 3 kt METAR EDLV 230150Z AUTO 04003KT 010V070 9999 NCD 16/12 Q1012
3:20 am
V
61 °F 6¼ mi+ - 040° 040° 3 kt METAR EDLV 230120Z AUTO 04003KT 360V070 9999 NCD 16/12 Q1012
2:50 am
V
63 °F 6¼ mi+ - 040° 040° 3 kt METAR EDLV 230050Z AUTO 04003KT 360V070 9999 NCD 17/12 Q1012
2:20 am
V
63 °F 6¼ mi+ - 030° 030° 4 kt METAR EDLV 230020Z AUTO 03004KT 010V070 9999 NCD 17/12 Q1012
1:50 am
V
63 °F 6¼ mi+ - 040° 040° 3 kt METAR EDLV 222350Z AUTO 04003KT 350V090 9999 NCD 17/12 Q1012
1:20 am
V
64 °F 6¼ mi+ - 040° 040° 4 kt METAR EDLV 222320Z AUTO 04004KT 360V090 9999 NCD 18/11 Q1012
12:50 am
V
64 °F 6¼ mi+ - 040° 040° 4 kt METAR EDLV 222250Z AUTO 04004KT 340V080 9999 NCD 18/10 Q1012
12:20 am
V
66 °F 6¼ mi+ - 040° 040° 5 kt METAR EDLV 222220Z AUTO 04005KT 010V070 9999 NCD 19/09 Q1012

22 giugno 2022

Tempo Codice Tempo metereologico Temp. Vista Base nuvolosa Vento METAR/SPECI
11:50 pm
V
68 °F 6¼ mi+ - 040° 040° 4 kt METAR EDLV 222150Z 04004KT 350V070 CAVOK 20/09 Q1012
11:20 pm
V
70 °F 6¼ mi+ - 020° 020° 3 kt METAR EDLV 222120Z 02003KT CAVOK 21/09 Q1012
10:50 pm
V
70 °F 6¼ mi+ - 020° 020° 3 kt METAR EDLV 222050Z 02003KT CAVOK 21/09 Q1012
Dati più vecchi

Scarica la nostra applicazione

Facile accesso a tutte le previsioni dell'aviazione sul tuo cellulare e tablet.
Con molte caratteristiche non disponibili sul sito web, come il supporto offline e una lista personale di aeroporti.

Noi e le terze parti seguiamo il tuo comportamento in internet sul nostro sito web con i cookie. Se continui, riteniamo che tu sia d'accordo con la nostra politica sui cookie. Per saperne di più